createdAt,value
2023-04-03T00:09:33.699Z,0.40
2023-04-03T00:19:38.293Z,0.40
2023-04-03T00:29:41.490Z,0.50
2023-04-03T00:39:46.426Z,0.60
2023-04-03T00:49:49.894Z,0.60
2023-04-03T00:59:59.637Z,0.50
2023-04-03T01:10:05.853Z,0.60
2023-04-03T01:20:47.939Z,0.70
2023-04-03T01:30:58.641Z,0.80
2023-04-03T01:41:03.817Z,0.93
2023-04-03T01:51:07.437Z,0.83
2023-04-03T02:01:12.189Z,1.03
2023-04-03T02:11:15.524Z,1.20
2023-04-03T02:21:20.113Z,1.50
2023-04-03T02:31:25.183Z,1.27
2023-04-03T02:41:35.770Z,1.40
2023-04-03T02:51:41.316Z,2.00
2023-04-03T03:01:46.284Z,2.10
2023-04-03T03:11:49.692Z,3.53
2023-04-03T03:21:54.434Z,5.97
2023-04-03T03:31:59.268Z,7.97
2023-04-03T03:42:04.383Z,7.73
2023-04-03T03:52:07.859Z,8.10
2023-04-03T04:02:12.725Z,9.47
2023-04-03T04:12:16.884Z,8.00
2023-04-03T04:22:21.543Z,7.57
2023-04-03T04:32:24.918Z,7.43
2023-04-03T04:42:29.923Z,8.57
2023-04-03T04:52:33.376Z,8.20
2023-04-03T05:02:38.176Z,8.17
2023-04-03T05:12:41.747Z,8.63
2023-04-03T05:22:46.907Z,9.10
2023-04-03T05:32:50.798Z,9.07
2023-04-03T05:42:59.394Z,9.30
2023-04-03T05:53:06.857Z,8.63
2023-04-03T06:03:11.914Z,8.57
2023-04-03T06:13:15.426Z,7.93
2023-04-03T06:23:20.184Z,7.73
2023-04-03T06:33:23.480Z,8.17
2023-04-03T06:43:28.248Z,6.77
2023-04-03T06:53:31.546Z,7.40
2023-04-03T07:03:36.483Z,5.47
2023-04-03T07:13:39.873Z,5.73
2023-04-03T07:23:44.509Z,4.97
2023-04-03T07:33:48.200Z,5.30
2023-04-03T07:43:52.991Z,5.77
2023-04-03T07:53:56.415Z,5.07
2023-04-03T08:04:01.543Z,5.33
2023-04-03T08:14:04.908Z,5.90
2023-04-03T08:24:10.110Z,4.93
2023-04-03T08:34:14.145Z,4.30
2023-04-03T08:44:25.499Z,4.27
2023-04-03T08:54:35.717Z,3.43
2023-04-03T09:04:40.975Z,3.90
2023-04-03T09:14:55.419Z,3.23
2023-04-03T09:25:03.424Z,4.00
2023-04-03T09:35:25.223Z,3.20
2023-04-03T09:45:36.013Z,4.03
2023-04-03T09:55:45.715Z,3.87
2023-04-03T10:05:51.947Z,2.93
2023-04-03T10:16:00.232Z,2.83
2023-04-03T10:26:18.075Z,2.90
2023-04-03T10:36:29.980Z,2.90
2023-04-03T10:46:39.922Z,3.27
2023-04-03T10:56:46.722Z,3.13
2023-04-03T11:06:55.809Z,3.33
2023-04-03T11:17:08.724Z,3.87
2023-04-03T11:27:19.668Z,3.50
2023-04-03T11:37:29.822Z,3.63
2023-04-03T11:47:52.230Z,3.30
2023-04-03T11:58:14.168Z,3.57
2023-04-03T12:08:28.727Z,3.10
2023-04-03T12:18:44.971Z,3.07
2023-04-03T12:28:53.678Z,3.67
2023-04-03T12:39:19.218Z,3.00
2023-04-03T12:49:37.355Z,2.63
2023-04-03T12:59:41.633Z,3.00
2023-04-03T13:09:56.897Z,2.80
2023-04-03T13:20:16.346Z,2.60
2023-04-03T13:30:28.473Z,2.63
2023-04-03T13:40:41.400Z,2.40
2023-04-03T13:50:59.862Z,2.33
2023-04-03T14:01:09.281Z,2.33
2023-04-03T14:11:18.136Z,2.00
2023-04-03T14:21:22.287Z,2.30
2023-04-03T14:31:27.550Z,2.70
2023-04-03T14:41:30.991Z,2.30
2023-04-03T14:51:35.998Z,2.83
2023-04-03T15:01:39.297Z,2.23
2023-04-03T15:11:43.892Z,2.57
2023-04-03T15:21:47.062Z,2.67
2023-04-03T15:31:54.482Z,2.63
2023-04-03T15:42:00.760Z,2.53
2023-04-03T15:52:05.474Z,3.00
2023-04-03T16:02:13.746Z,2.77
2023-04-03T16:12:18.498Z,3.00
2023-04-03T16:22:21.791Z,2.97
2023-04-03T16:32:29.630Z,2.67
2023-04-03T16:42:33.563Z,2.90
2023-04-03T16:52:38.545Z,2.83
2023-04-03T17:02:42.124Z,3.60
2023-04-03T17:12:46.763Z,3.00
2023-04-03T17:22:50.069Z,3.10
2023-04-03T17:32:54.649Z,2.87
2023-04-03T17:42:57.837Z,2.80
2023-04-03T17:53:02.430Z,2.90
2023-04-03T18:03:05.998Z,3.00
2023-04-03T18:13:11.207Z,3.00
2023-04-03T18:23:14.449Z,3.00
2023-04-03T18:33:19.020Z,3.00
2023-04-03T18:43:22.495Z,2.90
2023-04-03T18:53:27.018Z,3.27
2023-04-03T19:03:33.378Z,3.30
2023-04-03T19:13:46.570Z,3.20
2023-04-03T19:24:01.365Z,3.30
2023-04-03T19:34:06.771Z,3.10
2023-04-03T19:44:10.516Z,2.67
2023-04-03T19:54:15.101Z,3.47
2023-04-03T20:04:18.342Z,3.20
2023-04-03T20:14:23.013Z,3.57
2023-04-03T20:24:28.748Z,3.43
2023-04-03T20:34:33.589Z,3.70
2023-04-03T20:44:36.878Z,3.63
2023-04-03T20:54:42.501Z,3.90
2023-04-03T21:04:49.890Z,3.47
2023-04-03T21:15:31.462Z,4.07
2023-04-03T21:25:36.173Z,3.70
2023-04-03T21:35:39.351Z,4.00
2023-04-03T21:45:44.495Z,3.90
2023-04-03T21:55:54.473Z,3.43
2023-04-03T22:06:01.319Z,3.53
2023-04-03T22:16:04.835Z,3.50
2023-04-03T22:26:10.273Z,3.27
2023-04-03T22:36:14.944Z,3.17
2023-04-03T22:46:20.656Z,2.80
2023-04-03T22:56:25.933Z,2.90
2023-04-03T23:06:31.175Z,2.77
2023-04-03T23:16:34.487Z,2.43
2023-04-03T23:26:39.043Z,2.40
2023-04-03T23:36:42.360Z,2.60
2023-04-03T23:46:46.859Z,2.63
2023-04-03T23:56:50.078Z,2.13
